Time;durP1;ratioP1;P1;durP2;ratioP2;P2;SDS_P1;SDS_P2;PMS_P1;PMS_P2;Temp;Humidity;BMP_temperature;BMP_pressure;BME280_temperature;BME280_humidity;BME280_pressure;Samples;Min_cycle;Max_cycle;Signal;HPM_P1;HPM_P2
2021/04/24 00:00:17;;;;;;;0.80;0.80;;;4.00;99.90;;;4.53;100.00;-20805.38;5085168;28;20197;-67
2021/04/24 00:02:45;;;;;;;0.75;0.65;;;4.00;99.90;;;4.44;100.00;-20803.00;5074492;28;20189;-67
2021/04/24 00:05:22;;;;;;;0.80;0.70;;;4.00;99.90;;;4.39;100.00;-20801.47;5095201;28;20559;-69
2021/04/24 00:07:51;;;;;;;0.70;0.60;;;4.00;99.90;;;4.44;100.00;-20802.88;5094280;28;20184;-67
2021/04/24 00:10:20;;;;;;;0.80;0.70;;;4.00;99.90;;;4.42;100.00;-20802.31;5094569;28;20185;-67
2021/04/24 00:12:47;;;;;;;0.70;0.60;;;4.00;99.90;;;4.51;100.00;-20804.81;5094637;28;20212;-67
2021/04/24 00:15:15;;;;;;;0.80;0.80;;;4.00;99.90;;;4.50;100.00;-20804.53;5087975;28;20188;-67
2021/04/24 00:17:43;;;;;;;0.80;0.80;;;4.10;99.90;;;4.49;100.00;-20804.25;5075924;28;20266;-67
2021/04/24 00:20:14;;;;;;;0.70;0.60;;;4.10;99.90;;;4.42;100.00;-20802.47;5089160;28;20577;-66
2021/04/24 00:22:42;;;;;;;0.70;0.60;;;4.10;99.90;;;4.56;100.00;-20806.22;5093317;28;20181;-67
2021/04/24 00:25:11;;;;;;;0.70;0.60;;;4.10;99.90;;;4.54;100.00;-20805.66;5094333;28;20204;-67
2021/04/24 00:27:39;;;;;;;0.77;0.70;;;4.10;99.90;;;4.67;100.00;-20809.28;5094260;28;20211;-67
2021/04/24 00:30:10;;;;;;;0.70;0.60;;;4.30;99.90;;;4.90;100.00;-20815.41;5089883;28;20196;-68
2021/04/24 00:32:37;;;;;;;0.70;0.60;;;4.60;99.90;;;4.95;100.00;-20816.81;5075888;28;20203;-67
2021/04/24 00:35:07;;;;;;;0.70;0.70;;;4.60;99.90;;;4.89;100.00;-20815.28;5092962;28;20196;-68
2021/04/24 00:37:34;;;;;;;0.70;0.60;;;4.50;99.90;;;4.96;100.00;-20817.22;5093425;28;20251;-68
2021/04/24 00:40:01;;;;;;;0.80;0.70;;;4.60;99.90;;;5.12;100.00;-20821.53;5082358;28;20188;-68
2021/04/24 00:42:28;;;;;;;0.80;0.70;;;4.70;99.90;;;5.50;100.00;-20831.97;5093994;28;20243;-67
2021/04/24 00:44:57;;;;;;;0.70;0.60;;;5.10;99.90;;;5.38;100.00;-20828.50;5084812;28;20215;-68
2021/04/24 00:47:25;;;;;;;0.70;0.70;;;5.00;99.90;;;5.44;100.00;-20830.16;5074048;28;20185;-67
2021/04/24 00:49:52;;;;;;;0.80;0.70;;;5.00;99.90;;;5.35;100.00;-20827.66;5071390;28;20200;-67
2021/04/24 00:52:20;;;;;;;0.70;0.60;;;4.90;99.90;;;5.36;100.00;-20827.94;5072487;28;20558;-67
2021/04/24 00:54:47;;;;;;;0.75;0.70;;;5.00;99.90;;;5.58;100.00;-20834.06;5072648;28;20185;-67
2021/04/24 00:57:15;;;;;;;0.70;0.60;;;5.10;99.90;;;5.64;100.00;-20835.72;5073465;28;20236;-68
2021/04/24 00:59:42;;;;;;;0.70;0.60;;;5.20;99.90;;;5.56;100.00;-20833.50;5076214;28;20550;-67
2021/04/24 01:02:11;;;;;;;0.75;0.65;;;5.10;99.90;;;5.48;100.00;-20831.28;5109234;28;20195;-67
2021/04/24 01:04:38;;;;;;;0.70;0.60;;;5.10;99.90;;;5.36;100.00;-20827.94;5094542;28;20199;-68
2021/04/24 01:07:06;;;;;;;0.80;0.70;;;4.90;99.90;;;5.30;100.00;-20826.56;5094612;28;20184;-68
2021/04/24 01:09:33;;;;;;;0.70;0.60;;;4.90;99.90;;;5.25;100.00;-20825.00;5093960;28;20229;-69
2021/04/24 01:12:00;;;;;;;0.70;0.60;;;4.80;99.90;;;5.05;100.00;-20819.72;5093401;28;20208;-69
2021/04/24 01:14:28;;;;;;;0.70;0.70;;;4.80;99.90;;;4.92;100.00;-20815.97;5091849;28;20540;-68
2021/04/24 01:16:55;;;;;;;0.80;0.70;;;4.60;99.90;;;4.86;100.00;-20814.44;5108956;28;20176;-66
2021/04/24 01:19:24;;;;;;;0.73;0.60;;;4.50;99.90;;;4.77;100.00;-20811.94;5091192;28;20211;-67
2021/04/24 01:22:02;;;;;;;0.70;0.60;;;4.40;99.90;;;4.62;100.00;-20807.88;5093543;28;20191;-67
2021/04/24 01:24:29;;;;;;;0.70;0.60;;;4.30;99.90;;;4.50;100.00;-20804.69;5093433;28;20191;-67
2021/04/24 01:26:57;;;;;;;0.70;0.60;;;4.20;99.90;;;4.33;100.00;-20800.09;5092214;28;20345;-67
2021/04/24 01:29:24;;;;;;;0.80;0.75;;;4.00;99.90;;;4.18;100.00;-20795.91;5089098;28;20192;-71
2021/04/24 01:31:52;;;;;;;1.20;1.10;;;3.90;99.90;;;4.07;100.00;-20792.84;5071034;28;20203;-68
2021/04/24 01:34:19;;;;;;;0.80;0.70;;;3.80;99.90;;;3.93;100.00;-20788.94;5087693;28;20656;-68
2021/04/24 01:36:46;;;;;;;0.70;0.63;;;3.60;99.90;;;3.83;100.00;-20786.44;5093759;28;20185;-66
2021/04/24 01:39:14;;;;;;;0.80;0.80;;;3.50;99.90;;;3.74;100.00;-20783.78;5093646;28;20194;-67
2021/04/24 01:41:41;;;;;;;0.77;0.60;;;3.50;99.90;;;3.72;100.00;-20783.22;5093201;28;20204;-67
2021/04/24 01:44:08;;;;;;;0.80;0.70;;;3.40;99.90;;;3.63;100.00;-20780.84;5073117;28;20277;-67
2021/04/24 01:46:36;;;;;;;0.80;0.70;;;3.30;99.90;;;3.55;100.00;-20778.63;5071268;28;20247;-67
2021/04/24 01:49:03;;;;;;;0.80;0.70;;;3.20;99.90;;;3.53;100.00;-20778.06;5071906;28;20196;-68
2021/04/24 01:51:30;;;;;;;0.70;0.70;;;3.10;99.90;;;3.47;100.00;-20776.53;5073017;28;20185;-68
2021/04/24 01:53:58;;;;;;;0.80;0.70;;;3.20;99.90;;;3.34;100.00;-20773.03;5073099;28;20652;-67
2021/04/24 01:56:43;;;;;;;0.70;0.70;;;3.10;99.90;;;3.31;100.00;-20772.19;5071755;28;20181;-67
2021/04/24 01:59:10;;;;;;;0.80;0.68;;;3.00;99.90;;;3.29;100.00;-20771.66;5058800;28;20196;-68
2021/04/24 02:01:37;;;;;;;0.80;0.80;;;2.90;99.90;;;3.25;100.00;-20770.53;5072699;28;20193;-67
2021/04/24 02:04:05;;;;;;;0.80;0.70;;;2.80;99.90;;;3.13;100.00;-20767.19;5085100;28;20192;-68
2021/04/24 02:06:33;;;;;;;0.80;0.70;;;2.80;99.90;;;3.05;100.00;-20764.94;5091969;28;20652;-67
2021/04/24 02:09:00;;;;;;;0.80;0.73;;;2.70;99.90;;;3.07;100.00;-20765.50;5093062;28;20189;-67
2021/04/24 02:11:27;;;;;;;0.70;0.70;;;2.60;99.90;;;3.02;100.00;-20764.13;5092686;28;20257;-67
2021/04/24 02:13:55;;;;;;;0.80;0.80;;;2.70;99.90;;;2.99;100.00;-20763.41;5093786;28;20210;-66
2021/04/24 02:16:23;;;;;;;0.80;0.73;;;2.60;99.90;;;2.92;100.00;-20761.31;5096550;28;20181;-67
2021/04/24 02:18:50;;;;;;;0.70;0.70;;;2.60;99.90;;;2.94;100.00;-20762.03;5085248;28;20196;-67
2021/04/24 02:21:17;;;;;;;0.70;0.60;;;2.60;99.90;;;2.87;100.00;-20760.22;5112358;28;20283;-67
2021/04/24 02:23:44;;;;;;;0.80;0.60;;;2.50;99.90;;;2.82;100.00;-20758.81;5096110;28;20185;-68
2021/04/24 02:26:12;;;;;;;0.80;0.70;;;2.50;99.90;;;2.76;100.00;-20757.00;5085125;28;20219;-67
2021/04/24 02:28:38;;;;;;;0.80;0.73;;;2.50;99.90;;;2.73;100.00;-20756.31;5081178;28;20216;-67
2021/04/24 02:31:06;;;;;;;0.80;0.80;;;2.50;99.90;;;2.79;100.00;-20757.97;5076314;28;20188;-68
2021/04/24 02:33:33;;;;;;;0.80;0.70;;;2.40;99.90;;;2.67;100.00;-20754.63;5084015;28;20261;-68
2021/04/24 02:36:01;;;;;;;0.80;0.70;;;2.40;99.90;;;2.69;100.00;-20755.03;5096717;28;20173;-67
2021/04/24 02:38:32;;;;;;;0.80;0.60;;;2.30;99.90;;;2.64;100.00;-20753.78;5096356;28;20274;-67
2021/04/24 02:41:01;;;;;;;0.80;0.70;;;2.30;99.90;;;2.62;100.00;-20753.22;5095192;28;20204;-67
2021/04/24 02:43:29;;;;;;;0.80;0.70;;;2.30;99.90;;;2.62;100.00;-20753.22;5076430;28;20204;-67
2021/04/24 02:45:57;;;;;;;0.80;0.80;;;2.30;99.90;;;2.61;100.00;-20752.94;5089567;28;20240;-68
2021/04/24 02:48:25;;;;;;;0.80;0.70;;;2.20;99.90;;;2.56;100.00;-20751.56;5087219;28;20608;-67
2021/04/24 02:50:52;;;;;;;0.77;0.70;;;2.20;99.90;;;2.55;100.00;-20751.41;5076305;28;20182;-68
2021/04/24 02:53:19;;;;;;;0.70;0.60;;;2.20;99.90;;;2.64;100.00;-20753.78;5076238;28;20193;-68
2021/04/24 02:55:46;;;;;;;0.80;0.70;;;2.20;99.90;;;2.75;100.00;-20756.84;5075794;28;20238;-68
2021/04/24 02:58:13;;;;;;;0.70;0.60;;;2.30;99.90;;;2.74;100.00;-20756.59;5076270;28;20240;-67
2021/04/24 03:00:39;;;;;;;0.80;0.70;;;2.30;99.90;;;2.89;100.00;-20760.75;5075280;28;20174;-68
2021/04/24 03:03:09;;;;;;;0.80;0.63;;;2.40;99.90;;;3.02;100.00;-20764.13;5079750;28;20656;-67
2021/04/24 03:05:38;;;;;;;0.80;0.70;;;2.50;99.90;;;3.12;100.00;-20767.03;5094571;28;20222;-67
2021/04/24 03:08:07;;;;;;;0.80;0.68;;;2.60;99.90;;;3.20;100.00;-20769.13;5094500;28;20191;-67
2021/04/24 03:10:35;;;;;;;0.70;0.60;;;2.70;99.90;;;3.42;100.00;-20775.00;5093043;28;20185;-69
2021/04/24 03:13:04;;;;;;;0.77;0.70;;;2.90;99.90;;;3.58;100.00;-20779.47;5087075;28;20282;-67
2021/04/24 03:15:32;;;;;;;0.80;0.70;;;3.10;99.90;;;3.84;100.00;-20786.56;5075036;28;20208;-68
2021/04/24 03:18:00;;;;;;;0.70;0.65;;;3.30;99.90;;;3.87;100.00;-20787.53;5078353;28;20548;-67
2021/04/24 03:20:27;;;;;;;0.70;0.60;;;3.40;99.90;;;4.02;100.00;-20791.44;5095706;28;20279;-67
2021/04/24 03:22:55;;;;;;;0.70;0.60;;;3.60;99.90;;;4.01;100.00;-20791.16;5094485;28;20241;-68
2021/04/24 03:25:22;;;;;;;0.80;0.75;;;3.60;99.90;;;4.01;100.00;-20791.31;5095525;28;20262;-68
2021/04/24 03:27:48;;;;;;;0.70;0.70;;;3.60;99.90;;;3.95;100.00;-20789.63;5095112;28;20212;-67
2021/04/24 03:30:17;;;;;;;0.80;0.70;;;3.50;99.90;;;3.80;100.00;-20785.59;5077690;28;20606;-67
2021/04/24 03:32:44;;;;;;;0.70;0.60;;;3.40;99.90;;;3.78;100.00;-20785.03;5076448;28;20196;-67
2021/04/24 03:35:11;;;;;;;0.73;0.70;;;3.40;99.90;;;3.74;100.00;-20783.91;5095746;28;20297;-66
2021/04/24 03:37:39;;;;;;;0.70;0.70;;;3.30;99.90;;;3.66;100.00;-20781.69;5095346;28;20258;-68
2021/04/24 03:40:09;;;;;;;0.80;0.70;;;3.20;99.90;;;3.55;100.00;-20778.75;5095341;28;20246;-67
2021/04/24 03:42:36;;;;;;;0.80;0.70;;;3.20;99.90;;;3.50;100.00;-20777.22;5111084;28;20220;-67
2021/04/24 03:45:17;;;;;;;0.80;0.70;;;3.10;99.90;;;3.50;100.00;-20777.38;5095332;28;20499;-66
2021/04/24 03:47:47;;;;;;;0.70;0.60;;;3.00;99.90;;;3.56;100.00;-20778.91;5093523;28;20229;-67
2021/04/24 03:50:15;;;;;;;0.80;0.70;;;3.10;99.90;;;3.42;100.00;-20775.13;5095124;28;20673;-67
2021/04/24 03:52:42;;;;;;;0.80;0.70;;;3.10;99.90;;;3.31;100.00;-20772.19;5095117;28;20222;-68
2021/04/24 03:55:11;;;;;;;0.75;0.70;;;3.10;99.90;;;3.20;100.00;-20769.13;5094902;28;20671;-68
2021/04/24 03:57:38;;;;;;;0.70;0.60;;;2.90;99.90;;;3.10;100.00;-20766.34;5080249;28;20236;-68
2021/04/24 04:00:07;;;;;;;0.80;0.80;;;2.80;99.90;;;3.04;100.00;-20764.69;5074634;28;20196;-66
2021/04/24 04:02:48;;;;;;;0.80;0.80;;;2.60;99.90;;;2.90;100.00;-20761.03;5073835;28;20193;-68
2021/04/24 04:05:18;;;;;;;0.80;0.70;;;2.60;99.90;;;2.81;100.00;-20758.53;5076934;28;20242;-68
2021/04/24 04:07:45;;;;;;;0.80;0.70;;;2.60;99.90;;;2.74;100.00;-20756.59;5073686;28;20173;-67
2021/04/24 04:10:16;;;;;;;0.70;0.60;;;2.40;99.90;;;2.68;100.00;-20754.91;5074544;28;20177;-69
2021/04/24 04:12:45;;;;;;;0.70;0.60;;;2.30;99.90;;;2.66;100.00;-20754.34;5073268;28;20271;-67
2021/04/24 04:15:14;;;;;;;0.70;0.60;;;2.30;99.90;;;2.61;100.00;-20752.94;5073073;28;20220;-68
2021/04/24 04:17:47;;;;;;;0.70;0.50;;;2.20;99.90;;;2.49;100.00;-20749.75;5083886;28;20181;-67
2021/04/24 04:20:15;;;;;;;0.70;0.70;;;2.20;99.90;;;2.46;100.00;-20748.75;5079239;28;20230;-68
2021/04/24 04:22:42;;;;;;;0.80;0.70;;;2.10;99.90;;;2.49;100.00;-20749.59;5094650;28;20259;-68
2021/04/24 04:25:11;;;;;;;0.70;0.60;;;2.10;99.90;;;2.45;100.00;-20748.47;5094176;28;20246;-67
2021/04/24 04:27:39;;;;;;;0.80;0.70;;;2.00;99.90;;;2.38;100.00;-20746.81;5094158;28;20253;-67
2021/04/24 04:30:09;;;;;;;0.80;0.75;;;2.00;99.90;;;2.38;100.00;-20746.81;5089245;28;20756;-67
2021/04/24 04:32:36;;;;;;;0.80;0.80;;;2.00;99.90;;;2.35;100.00;-20745.97;5082540;28;20280;-68
2021/04/24 04:35:05;;;;;;;0.75;0.70;;;1.90;99.90;;;2.34;100.00;-20745.56;5079716;28;20522;-66
2021/04/24 04:37:32;;;;;;;0.80;0.77;;;1.90;99.90;;;2.37;100.00;-20746.53;5094179;28;20191;-68
2021/04/24 04:40:00;;;;;;;0.80;0.80;;;1.90;99.90;;;2.36;100.00;-20746.13;5094240;28;20180;-67
2021/04/24 04:42:27;;;;;;;0.73;0.65;;;1.90;99.90;;;2.35;100.00;-20745.97;5090481;28;20224;-68
2021/04/24 04:44:55;;;;;;;0.80;0.70;;;2.00;99.90;;;2.45;100.00;-20748.47;5094704;28;20172;-67
2021/04/24 04:47:22;;;;;;;0.80;0.75;;;2.00;99.90;;;2.48;100.00;-20749.31;5093608;28;20207;-67
2021/04/24 04:49:50;;;;;;;0.77;0.70;;;2.00;99.90;;;2.49;100.00;-20749.59;5093224;28;20711;-66
2021/04/24 04:52:17;;;;;;;0.70;0.60;;;2.00;99.90;;;2.55;100.00;-20751.41;5092641;28;20271;-68
2021/04/24 04:54:44;;;;;;;0.80;0.70;;;2.00;99.90;;;2.59;100.00;-20752.41;5092782;28;20184;-67
2021/04/24 04:57:11;;;;;;;0.70;0.60;;;2.20;99.90;;;2.69;100.00;-20755.19;5091394;28;20207;-67
2021/04/24 04:59:38;;;;;;;0.80;0.70;;;2.10;99.90;;;2.78;100.00;-20757.69;5089590;28;20238;-67
2021/04/24 05:02:06;;;;;;;0.80;0.70;;;2.20;99.90;;;2.87;100.00;-20760.22;5073468;28;20254;-68
2021/04/24 05:04:33;;;;;;;0.80;0.70;;;2.30;99.90;;;2.96;100.00;-20762.59;5073343;28;20704;-68
2021/04/24 05:07:00;;;;;;;0.80;0.65;;;2.30;99.90;;;3.03;100.00;-20764.41;5072375;28;20192;-67
2021/04/24 05:09:28;;;;;;;0.70;0.60;;;2.40;99.90;;;3.10;100.00;-20766.34;5073571;28;20189;-67
2021/04/24 05:11:54;;;;;;;0.70;0.70;;;2.50;99.90;;;3.19;100.00;-20768.84;5055692;28;20626;-67
2021/04/24 05:14:21;;;;;;;1.00;0.90;;;2.60;99.90;;;3.30;100.00;-20771.78;5073908;28;20229;-68
2021/04/24 05:16:48;;;;;;;0.80;0.70;;;2.70;99.90;;;3.43;100.00;-20775.28;5073426;28;20184;-67
2021/04/24 05:19:16;;;;;;;0.80;0.70;;;2.80;99.90;;;3.50;100.00;-20777.22;5073833;28;20656;-68
2021/04/24 05:21:43;;;;;;;0.70;0.60;;;2.80;99.90;;;3.60;100.00;-20780.00;5080913;28;20193;-67
2021/04/24 05:24:11;;;;;;;0.80;0.70;;;2.90;99.90;;;3.72;100.00;-20783.22;5078554;28;20188;-68
2021/04/24 05:26:38;;;;;;;0.70;0.70;;;3.00;99.90;;;3.82;100.00;-20786.00;5085303;28;20250;-66
2021/04/24 05:29:05;;;;;;;0.70;0.60;;;3.10;99.90;;;3.99;100.00;-20790.63;5083491;28;20637;-67
2021/04/24 05:31:32;;;;;;;0.70;0.60;;;3.30;99.90;;;4.13;100.00;-20794.50;5080930;28;20271;-67
2021/04/24 05:33:59;;;;;;;0.80;0.70;;;3.40;99.90;;;4.26;100.00;-20798.00;5079510;28;20195;-67
2021/04/24 05:36:27;;;;;;;0.80;0.70;;;3.60;99.90;;;4.39;100.00;-20801.47;5073417;28;20188;-67
2021/04/24 05:38:55;;;;;;;0.80;0.70;;;3.70;99.90;;;4.54;100.00;-20805.66;5084345;28;20215;-67
2021/04/24 05:41:22;;;;;;;0.70;0.70;;;3.80;99.90;;;4.68;100.00;-20809.44;5068773;28;20215;-69
2021/04/24 05:43:52;;;;;;;0.77;0.63;;;3.90;99.90;;;4.87;100.00;-20814.72;5073194;28;20689;-67
2021/04/24 05:46:20;;;;;;;0.80;0.70;;;4.10;99.90;;;5.03;100.00;-20819.03;5075191;28;20249;-69
2021/04/24 05:48:48;;;;;;;0.77;0.70;;;4.30;99.90;;;5.18;100.00;-20823.19;5076412;28;20207;-67
2021/04/24 05:51:16;;;;;;;0.70;0.70;;;4.40;99.90;;;5.31;100.00;-20826.81;5076788;28;20254;-68
2021/04/24 05:53:46;;;;;;;0.80;0.77;;;4.50;99.90;;;5.51;100.00;-20832.13;5077171;28;20238;-67
2021/04/24 05:56:15;;;;;;;0.77;0.70;;;4.70;99.90;;;5.63;100.00;-20835.44;5080275;28;20703;-68
2021/04/24 05:58:42;;;;;;;0.70;0.60;;;4.80;99.90;;;5.85;100.00;-20841.44;5076832;28;20208;-67
2021/04/24 06:01:10;;;;;;;0.70;0.60;;;5.00;99.90;;;6.07;100.00;-20847.41;5083043;28;20217;-67
2021/04/24 06:03:37;;;;;;;0.80;0.70;;;5.20;99.90;;;6.26;100.00;-20852.72;5075391;28;20204;-66
2021/04/24 06:06:05;;;;;;;0.70;0.60;;;5.40;99.90;;;6.52;100.00;-20859.66;5086396;28;20197;-67
2021/04/24 06:08:32;;;;;;;0.70;0.60;;;5.60;99.90;;;6.85;100.00;-20868.53;5087785;28;20191;-67
2021/04/24 06:11:00;;;;;;;0.70;0.70;;;5.80;99.90;;;7.19;100.00;-20878.00;5086777;28;20238;-68
2021/04/24 06:13:27;;;;;;;0.70;0.60;;;6.00;99.90;;;7.28;100.00;-20880.22;5085317;28;20207;-67
2021/04/24 06:15:55;;;;;;;0.80;0.60;;;6.30;99.90;;;7.60;100.00;-20888.97;5088000;28;20177;-68
2021/04/24 06:18:22;;;;;;;0.70;0.60;;;6.50;99.90;;;7.79;100.00;-20894.25;5091424;28;20215;-68
2021/04/24 06:20:50;;;;;;;0.70;0.60;;;6.70;99.90;;;7.64;100.00;-20890.22;5093876;28;20644;-68
2021/04/24 06:23:17;;;;;;;0.70;0.60;;;6.90;99.90;;;7.82;100.00;-20894.94;5090540;28;20180;-69
2021/04/24 06:25:44;;;;;;;0.77;0.68;;;6.90;99.90;;;7.69;100.00;-20891.47;5083840;28;20474;-67
2021/04/24 06:28:13;;;;;;;0.70;0.60;;;6.90;99.90;;;7.82;100.00;-20894.94;5093477;28;20208;-67
2021/04/24 06:30:40;;;;;;;0.70;0.60;;;7.00;99.90;;;8.14;100.00;-20903.69;5084800;28;20215;-67
2021/04/24 06:33:08;;;;;;;0.70;0.60;;;7.10;99.90;;;8.02;100.00;-20900.34;5079862;28;20854;-68
2021/04/24 06:35:35;;;;;;;0.70;0.60;;;7.20;99.90;;;8.14;100.00;-20903.69;5095115;28;20512;-68
2021/04/24 06:38:02;;;;;;;0.70;0.60;;;7.30;99.90;;;8.13;100.00;-20903.53;5093713;28;20434;-69
2021/04/24 06:40:29;;;;;;;0.90;0.90;;;7.40;99.90;;;8.21;100.00;-20905.63;5093222;28;20189;-68
2021/04/24 06:42:56;;;;;;;0.70;0.50;;;7.40;99.90;;;8.53;100.00;-20914.34;5079997;28;20470;-67
2021/04/24 06:45:24;;;;;;;0.70;0.60;;;7.50;99.90;;;8.73;100.00;-20919.63;5075935;28;20834;-69
2021/04/24 06:47:51;;;;;;;0.70;0.60;;;7.70;99.90;;;8.81;100.00;-20921.84;5087753;28;20495;-67
2021/04/24 06:50:20;;;;;;;0.70;0.60;;;7.80;99.90;;;8.85;100.00;-20922.94;5077659;28;20484;-67
2021/04/24 06:52:49;;;;;;;0.70;0.60;;;7.90;99.90;;;9.17;100.00;-20931.81;5076141;28;20468;-66
2021/04/24 06:55:17;;;;;;;0.70;0.60;;;8.00;99.90;;;9.31;100.00;-20935.56;5076122;28;20412;-67
2021/04/24 06:57:45;;;;;;;0.70;0.60;;;8.20;99.90;;;9.00;100.00;-20927.13;5074934;28;20466;-67
2021/04/24 07:00:15;;;;;;;0.70;0.60;;;8.20;99.90;;;9.55;100.00;-20942.06;5075375;28;20485;-67
2021/04/24 07:02:43;;;;;;;0.70;0.60;;;8.20;99.90;;;9.95;100.00;-20952.88;5075713;28;20423;-68
2021/04/24 07:05:13;;;;;;;0.70;0.60;;;8.30;99.90;;;9.65;100.00;-20944.84;5095988;28;20424;-67
2021/04/24 07:07:41;;;;;;;0.80;0.70;;;8.40;99.90;;;9.88;100.00;-20951.06;5095844;28;20470;-67
2021/04/24 07:10:11;;;;;;;0.70;0.50;;;8.70;99.90;;;10.36;100.00;-20964.09;5111701;28;20878;-67
2021/04/24 07:12:39;;;;;;;0.73;0.67;;;9.00;99.90;;;11.26;100.00;-20988.28;5095846;28;20445;-67
2021/04/24 07:15:10;;;;;;;0.80;0.70;;;9.10;99.90;;;12.01;100.00;-21008.75;5087495;28;20934;-67
2021/04/24 07:17:37;;;;;;;0.70;0.60;;;9.40;98.10;;;12.16;100.00;-21012.75;5075227;28;20417;-67
2021/04/24 07:20:09;;;;;;;1.00;0.87;;;9.80;94.30;;;11.97;100.00;-21007.63;5075452;28;20425;-67
2021/04/24 07:22:37;;;;;;;0.80;0.60;;;10.20;91.80;;;12.24;100.00;-21014.81;5074327;28;20410;-67
2021/04/24 07:25:06;;;;;;;0.80;0.70;;;10.60;86.00;;;12.71;100.00;-21027.50;5085637;28;20442;-67
2021/04/24 07:27:33;;;;;;;0.80;0.70;;;10.80;81.30;;;13.09;100.00;-21037.84;5090362;28;20531;-66
2021/04/24 07:30:02;;;;;;;0.70;0.60;;;10.80;79.90;;;12.81;100.00;-21030.41;5088824;28;20490;-68
2021/04/24 07:32:29;;;;;;;0.70;0.60;;;11.10;79.60;;;13.21;100.00;-21041.03;5085624;28;20960;-67
2021/04/24 07:34:56;;;;;;;2.83;0.80;;;11.70;73.20;;;13.90;100.00;-21059.63;5093451;28;20431;-66
2021/04/24 07:37:24;;;;;;;1.00;0.97;;;11.90;72.70;;;14.02;100.00;-21063.06;5075181;28;20462;-67
2021/04/24 07:39:51;;;;;;;0.70;0.60;;;11.50;70.20;;;13.57;100.00;-21050.69;5075238;28;20456;-68
2021/04/24 07:42:18;;;;;;;0.70;0.60;;;11.60;65.60;;;13.35;100.00;-21044.88;5092746;28;20499;-69
2021/04/24 07:44:45;;;;;;;0.70;0.60;;;11.30;63.00;;;13.60;100.00;-21051.66;5091935;28;20837;-66
2021/04/24 07:47:12;;;;;;;0.70;0.60;;;11.50;64.70;;;13.57;100.00;-21050.69;5094555;28;20458;-68
2021/04/24 07:49:40;;;;;;;0.70;0.60;;;11.70;67.70;;;13.64;100.00;-21052.75;5077394;28;20852;-67
2021/04/24 07:52:10;;;;;;;0.80;0.63;;;12.00;62.50;;;13.34;100.00;-21044.63;5065228;28;20430;-68
2021/04/24 07:54:43;;;;;;;0.80;0.80;;;12.00;57.70;;;13.01;100.00;-21035.66;5083817;28;20446;-69
2021/04/24 07:57:10;;;;;;;0.70;0.60;;;11.80;56.60;;;14.02;100.00;-21063.06;5085420;28;20461;-68
2021/04/24 07:59:37;;;;;;;0.80;0.73;;;12.30;57.30;;;14.19;100.00;-21067.50;5090014;28;20452;-69
2021/04/24 08:02:05;;;;;;;0.80;0.60;;;12.60;56.40;;;14.43;100.00;-21074.09;5090694;28;20425;-68
2021/04/24 08:04:33;;;;;;;0.80;0.70;;;12.90;52.60;;;14.00;100.00;-21062.53;5078515;28;20441;-70
2021/04/24 08:07:01;;;;;;;0.70;0.50;;;12.50;49.20;;;14.30;100.00;-21070.53;5081862;28;20508;-66
2021/04/24 08:09:28;;;;;;;0.70;0.60;;;12.50;52.20;;;14.35;100.00;-21071.88;5092436;28;20422;-68
2021/04/24 08:11:56;;;;;;;0.80;0.70;;;12.80;50.00;;;14.04;100.00;-21063.34;5092770;28;20438;-68
2021/04/24 08:14:23;;;;;;;0.70;0.60;;;12.50;45.50;;;14.15;100.00;-21066.38;5077115;28;20493;-68
2021/04/24 08:16:50;;;;;;;0.80;0.70;;;12.70;46.10;;;14.68;100.00;-21080.72;5086345;28;20413;-68
2021/04/24 08:19:17;;;;;;;1.77;1.67;;;13.10;44.50;;;15.12;100.00;-21092.53;5087734;28;20873;-68
2021/04/24 08:21:44;;;;;;;0.80;0.60;;;13.70;41.60;;;17.06;100.00;-21144.75;5094580;28;20426;-66
2021/04/24 08:24:12;;;;;;;0.80;0.60;;;13.70;36.30;;;16.34;100.00;-21125.53;5094184;28;20869;-67
2021/04/24 08:26:40;;;;;;;0.80;0.60;;;14.00;36.10;;;17.49;100.00;-21156.25;5094389;28;20960;-68
2021/04/24 08:29:08;;;;;;;0.80;0.60;;;14.00;36.10;;;17.79;99.44;-21164.50;5094338;28;20428;-65
2021/04/24 08:31:36;;;;;;;0.80;0.80;;;14.10;33.00;;;17.53;98.40;-21157.50;5080460;28;20442;-67
2021/04/24 08:34:04;;;;;;;0.80;0.70;;;13.80;35.20;;;16.52;95.39;-21130.19;5077989;28;20417;-68
2021/04/24 08:36:32;;;;;;;1.20;1.10;;;14.30;30.50;;;15.93;99.02;-21114.53;5085350;28;20422;-68
2021/04/24 08:38:59;;;;;;;0.80;0.60;;;13.90;30.80;;;15.56;98.11;-21104.38;5094458;28;20392;-68
2021/04/24 08:41:26;;;;;;;0.70;0.60;;;13.80;28.30;;;15.68;97.99;-21107.66;5093595;28;20446;-68
2021/04/24 08:43:56;;;;;;;0.70;0.60;;;13.80;27.80;;;17.07;94.41;-21145.03;5073849;28;20472;-69
2021/04/24 08:46:25;;;;;;;0.73;0.60;;;13.30;25.80;;;15.34;99.56;-21098.59;5081217;28;20761;-69
2021/04/24 08:48:54;;;;;;;0.70;0.60;;;13.80;29.60;;;16.53;100.00;-21130.47;5085372;28;20447;-68
2021/04/24 08:51:24;;;;;;;0.70;0.60;;;14.10;30.00;;;15.63;96.88;-21106.28;5085667;28;20443;-68
2021/04/24 08:53:52;;;;;;;0.80;0.60;;;14.30;27.40;;;17.24;98.69;-21149.69;5089270;28;20416;-69
2021/04/24 08:56:25;;;;;;;0.80;0.60;;;14.30;28.30;;;16.76;94.55;-21136.66;5075632;28;20489;-67
2021/04/24 08:58:53;;;;;;;0.80;0.60;;;14.40;25.90;;;17.04;94.96;-21144.19;5084941;28;20426;-69
2021/04/24 09:01:21;;;;;;;1.10;1.00;;;14.30;27.20;;;15.98;94.68;-21115.63;5075639;28;20402;-68
2021/04/24 09:03:50;;;;;;;1.40;0.90;;;14.20;24.40;;;15.34;95.95;-21098.59;5082783;28;20806;-69
2021/04/24 09:06:21;;;;;;;0.80;0.70;;;13.80;24.60;;;15.93;97.53;-21114.53;5093681;28;20454;-69
2021/04/24 09:08:54;;;;;;;0.97;0.93;;;13.60;25.40;;;16.27;99.18;-21123.47;5093873;28;20397;-68
2021/04/24 09:11:22;;;;;;;0.70;0.60;;;14.30;27.90;;;17.18;95.58;-21148.03;5093936;28;20444;-68
2021/04/24 09:14:00;;;;;;;0.80;0.70;;;14.60;26.30;;;17.60;93.85;-21159.41;5093299;28;20460;-68
2021/04/24 09:16:32;;;;;;;0.70;0.60;;;14.90;25.00;;;16.87;94.45;-21139.81;5089948;28;20402;-69
2021/04/24 09:19:01;;;;;;;0.90;0.60;;;15.10;24.80;;;19.55;89.32;-21211.59;5078664;28;20458;-68
2021/04/24 09:21:30;;;;;;;0.70;0.60;;;14.40;24.60;;;18.04;90.55;-21171.06;5076684;28;20419;-69
2021/04/24 09:23:57;;;;;;;0.80;0.70;;;14.50;24.90;;;15.55;91.86;-21104.09;5093313;28;20418;-69
2021/04/24 09:26:27;;;;;;;1.37;0.70;;;14.30;22.50;;;15.31;93.93;-21097.63;5086902;28;20802;-69
2021/04/24 09:29:04;;;;;;;1.10;1.00;;;13.90;22.90;;;16.02;95.42;-21116.88;5077610;28;20487;-69
2021/04/24 09:31:34;;;;;;;0.80;0.60;;;14.30;24.20;;;17.31;92.69;-21151.59;5090696;28;20450;-68
2021/04/24 09:34:03;;;;;;;0.80;0.60;;;13.80;23.50;;;16.22;94.93;-21122.09;5091853;28;20453;-68
2021/04/24 09:36:34;;;;;;;0.70;0.60;;;14.10;25.10;;;16.43;97.08;-21128.00;5092473;28;20836;-68
2021/04/24 09:39:05;;;;;;;0.70;0.60;;;14.30;27.00;;;15.87;94.99;-21112.75;5097615;28;20447;-68
2021/04/24 09:41:38;;;;;;;0.70;0.67;;;14.30;24.00;;;16.49;95.81;-21129.38;5081027;28;20437;-69
2021/04/24 09:44:08;;;;;;;0.80;0.70;;;14.90;25.00;;;15.57;94.65;-21104.63;5073250;28;20416;-68
2021/04/24 09:46:51;;;;;;;0.80;0.60;;;14.30;22.20;;;16.37;93.62;-21126.22;5072695;28;20910;-69
2021/04/24 09:49:22;;;;;;;0.80;0.70;;;14.80;22.90;;;16.40;94.29;-21127.16;5072145;28;20475;-69
2021/04/24 09:51:52;;;;;;;0.80;0.60;;;15.00;21.50;;;18.02;91.55;-21170.53;5072684;28;20390;-69
2021/04/24 09:54:22;;;;;;;0.80;0.63;;;15.20;23.30;;;16.97;94.00;-21142.28;5072648;28;20472;-68
2021/04/24 09:57:01;;;;;;;0.80;0.60;;;15.60;22.50;;;17.89;93.37;-21166.97;5072895;28;20421;-69
2021/04/24 09:59:30;;;;;;;0.80;0.60;;;15.30;21.90;;;17.20;90.59;-21148.44;5071774;28;20978;-69
2021/04/24 10:01:59;;;;;;;0.80;0.80;;;15.30;20.40;;;16.22;94.27;-21122.09;5068309;28;20423;-69
2021/04/24 10:04:28;;;;;;;1.73;0.90;;;14.70;21.80;;;16.91;93.71;-21140.78;5072386;28;20439;-68
2021/04/24 10:06:55;;;;;;;0.70;0.60;;;15.00;21.00;;;17.79;93.15;-21164.50;5083385;28;20830;-68
2021/04/24 10:09:26;;;;;;;0.80;0.60;;;15.20;21.80;;;17.59;91.54;-21159.00;5072815;28;21102;-70
2021/04/24 10:12:09;;;;;;;0.80;0.60;;;15.70;19.80;;;17.91;89.96;-21167.66;5072921;28;20495;-69
2021/04/24 10:14:43;;;;;;;0.80;0.80;;;15.70;18.50;;;17.40;94.93;-21153.94;5071411;28;20752;-69
2021/04/24 10:17:12;;;;;;;0.70;0.60;;;15.60;22.30;;;18.00;94.66;-21170.09;5072132;28;20783;-68
2021/04/24 10:19:42;;;;;;;0.80;0.70;;;16.10;21.80;;;18.48;92.93;-21182.84;5072131;28;20538;-68